CheckWX is a tool to help pilots better visualize weather data.  It is not intended as a substitute for an official pre-flight weather briefing.

09:30:44 UTC

PACV TAF
Merle K (Mudhole) Smith Airport
Cordova, Alaska, USA
PACV 210521Z 2106/2206 10008KT P6SM -SHRA SCT015 OVC025 TEMPO 2106/2110 3SM SHRA BR BKN015 FM212000 11015G23KT 4SM RA BR SCT015 OVC025 FM220000 10020G30KT 3SM RA BR OVC015

Nov-21@
06:00 UTC

Nov-21 @ 06:00 UTC

Nov-21@
20:00 UTC

Nov-21 @ 20:00 UTC

PACV 210521Z 2106/2206 10008KT P6SM -SHRA SCT015 OVC025
Wind
  • 100° at 8 KTS
Conditions
Light Rain
Cloud Levels
  • Scattered at 1,500' AGL
  • Overcast at 2,500' AGL

Nov-21@
06:00 UTC

Nov-21 @ 06:00 UTC

Nov-21@
10:00 UTC

Nov-21 @ 10:00 UTC

TEMPO 2106/2110 3SM SHRA BR BKN015

Temporary

Temporary Changes expected for less than half the time period

Conditions
Rain, Mist
Cloud Levels
  • Broken at 1,500' AGL

Nov-21@
20:00 UTC

Nov-21 @ 20:00 UTC

Nov-22@
00:00 UTC

Nov-22 @ 00:00 UTC

FM212000 11015G23KT 4SM RA BR SCT015 OVC025

From

From Standard forecast or significant change

Wind
  • 110° at 15 KTS
  • {Gusting to 23 KTS
Conditions
Rain, Mist
Cloud Levels
  • Scattered at 1,500' AGL
  • Overcast at 2,500' AGL

Nov-22@
00:00 UTC

Nov-22 @ 00:00 UTC

Nov-22@
06:00 UTC

Nov-22 @ 06:00 UTC

FM220000 10020G30KT 3SM RA BR OVC015

From

From Standard forecast or significant change

Wind
  • 100° at 20 KTS
  • {Gusting to 30 KTS
Conditions
Rain, Mist
Cloud Levels
  • Overcast at 1,500' AGL